Neder Vindinge, Denmark
Current Conditions -  °F | °C
As of 3:20 PM on Friday 28 Nov 2014 (Local Time) from EKAV Reporting Station
Rain Showers Rain Showers  
Wind Chill:   Ceiling: 2000
Heat Index:   Visibility: 6mi
Dew Point: -1°   Wind: 22mph
Humidity: 65%   Direction: 100°E
Pressure: 30.27"   Gusts: 38mph
Location:  55.03°N, 11.88°E
Report Text: EKAV 281420Z AUTO 10019G33KT 010V140 9999NDV -SHRA BKN020///05/M01 Q1025
Loading
Personal Weather Stations






























Interactive Weather Map New forecast layout! Learn more

10-Day Weather Forecast

Advertisements
Track Severe Weather on mobile